Time;durP1;ratioP1;P1;durP2;ratioP2;P2;SDS_P1;SDS_P2;PMS_P1;PMS_P2;Temp;Humidity;BMP_temperature;BMP_pressure;BME280_temperature;BME280_humidity;BME280_pressure;Samples;Min_cycle;Max_cycle;Signal;HPM_P1;HPM_P2
2023/12/09 00:00:52;;;;;;;20.80;16.67;;;7.80;99.90;;;;;;953439;148;27309;-82
2023/12/09 00:03:18;;;;;;;25.20;20.47;;;7.80;99.90;;;;;;953642;149;27331;-82
2023/12/09 00:05:45;;;;;;;32.33;25.43;;;7.80;99.90;;;;;;953770;150;27344;-82
2023/12/09 00:08:11;;;;;;;28.70;22.03;;;7.80;99.90;;;;;;954303;149;27274;-82
2023/12/09 00:10:38;;;;;;;28.03;22.27;;;7.80;99.90;;;;;;953949;148;27298;-82
2023/12/09 00:13:04;;;;;;;24.57;18.90;;;7.80;99.90;;;;;;954289;150;27382;-82
2023/12/09 00:15:31;;;;;;;27.67;19.63;;;7.80;99.90;;;;;;953692;150;27339;-82
2023/12/09 00:17:58;;;;;;;26.27;21.13;;;7.80;99.90;;;;;;953864;150;28816;-83
2023/12/09 00:20:24;;;;;;;24.53;19.77;;;7.90;99.90;;;;;;954052;149;27332;-82
2023/12/09 00:22:51;;;;;;;22.87;19.47;;;7.90;99.90;;;;;;953339;149;27368;-82
2023/12/09 00:25:17;;;;;;;24.37;19.43;;;7.90;99.90;;;;;;954034;149;27375;-82
2023/12/09 00:27:44;;;;;;;32.37;23.73;;;7.90;99.90;;;;;;953682;149;27337;-82
2023/12/09 00:30:10;;;;;;;26.87;20.63;;;7.90;99.90;;;;;;952683;150;27284;-82
2023/12/09 00:32:37;;;;;;;21.37;17.50;;;7.90;99.90;;;;;;953197;150;27285;-82
2023/12/09 00:35:04;;;;;;;22.80;17.73;;;7.90;99.90;;;;;;953696;148;27385;-82
2023/12/09 00:37:31;;;;;;;22.33;16.00;;;7.90;99.90;;;;;;954534;150;27360;-82
2023/12/09 00:39:57;;;;;;;19.50;15.10;;;7.90;99.90;;;;;;954196;148;28391;-83
2023/12/09 00:42:24;;;;;;;17.87;14.27;;;7.90;99.90;;;;;;953480;150;27257;-82
2023/12/09 00:44:50;;;;;;;18.30;14.80;;;7.90;99.90;;;;;;956393;146;27335;-82
2023/12/09 00:47:17;;;;;;;19.53;14.57;;;7.90;99.90;;;;;;959917;149;27290;-83
2023/12/09 00:49:43;;;;;;;17.77;14.17;;;7.90;99.90;;;;;;960313;148;27935;-83
2023/12/09 00:52:11;;;;;;;19.03;13.43;;;7.90;99.90;;;;;;960316;149;27596;-83
2023/12/09 00:54:36;;;;;;;17.13;13.97;;;7.90;99.90;;;;;;959582;148;27312;-81
2023/12/09 00:57:03;;;;;;;18.43;14.67;;;7.90;99.90;;;;;;960337;149;27397;-80
2023/12/09 00:59:30;;;;;;;17.97;13.70;;;7.90;99.90;;;;;;959786;149;27404;-81
2023/12/09 01:01:56;;;;;;;19.67;15.10;;;7.90;99.90;;;;;;960684;149;27338;-81
2023/12/09 01:04:23;;;;;;;20.43;15.07;;;8.00;99.90;;;;;;960128;149;27292;-80
2023/12/09 01:06:49;;;;;;;23.23;16.07;;;8.00;99.90;;;;;;959167;149;27284;-81
2023/12/09 01:09:16;;;;;;;20.30;15.10;;;8.00;99.90;;;;;;959584;149;27299;-81
2023/12/09 01:11:42;;;;;;;21.23;15.57;;;8.00;99.90;;;;;;959819;148;27417;-81
2023/12/09 01:14:09;;;;;;;19.53;13.80;;;8.00;99.90;;;;;;959631;148;27474;-82
2023/12/09 01:16:36;;;;;;;19.47;14.73;;;8.00;99.90;;;;;;960241;149;27337;-82
2023/12/09 01:19:02;;;;;;;20.77;14.47;;;8.00;99.90;;;;;;960647;149;27315;-82
2023/12/09 01:21:29;;;;;;;19.07;13.67;;;8.10;99.90;;;;;;960520;149;27384;-81
2023/12/09 01:23:55;;;;;;;17.17;13.43;;;8.10;99.90;;;;;;960643;149;27363;-82
2023/12/09 01:26:22;;;;;;;17.80;14.43;;;8.10;99.90;;;;;;960050;149;27335;-82
2023/12/09 01:28:49;;;;;;;17.03;12.87;;;8.10;99.90;;;;;;959842;149;27380;-82
2023/12/09 01:31:15;;;;;;;13.63;11.97;;;8.20;99.90;;;;;;960440;148;27376;-81
2023/12/09 01:33:42;;;;;;;17.47;12.67;;;8.20;99.90;;;;;;960488;149;27357;-82
2023/12/09 01:36:08;;;;;;;15.87;13.10;;;8.20;99.90;;;;;;960138;148;27307;-82
2023/12/09 01:38:35;;;;;;;17.30;13.23;;;8.20;99.90;;;;;;959679;149;27296;-82
2023/12/09 01:41:02;;;;;;;17.50;13.43;;;8.30;99.90;;;;;;960535;149;27304;-82
2023/12/09 01:43:28;;;;;;;16.20;12.83;;;8.30;99.90;;;;;;960650;148;27347;-81
2023/12/09 01:45:55;;;;;;;16.07;12.53;;;8.30;99.90;;;;;;946194;148;27992;-81
2023/12/09 01:48:21;;;;;;;17.83;12.90;;;8.30;99.90;;;;;;934151;149;27327;-81
2023/12/09 01:50:48;;;;;;;16.83;13.20;;;8.30;99.90;;;;;;934088;149;27296;-81
2023/12/09 01:53:14;;;;;;;15.90;12.77;;;8.40;99.90;;;;;;933707;149;27354;-83
2023/12/09 01:55:41;;;;;;;14.67;12.73;;;8.40;99.90;;;;;;933845;149;27531;-84
2023/12/09 01:58:08;;;;;;;15.73;13.23;;;8.40;99.90;;;;;;933925;149;27362;-84
2023/12/09 02:00:34;;;;;;;16.33;12.90;;;8.40;99.90;;;;;;933459;149;27314;-83
2023/12/09 02:03:01;;;;;;;17.17;13.30;;;8.40;99.90;;;;;;933842;149;27331;-83
2023/12/09 02:05:27;;;;;;;15.73;13.17;;;8.40;99.90;;;;;;934435;149;27377;-82
2023/12/09 02:07:54;;;;;;;16.27;13.50;;;8.40;99.90;;;;;;933771;149;27370;-82
2023/12/09 02:10:21;;;;;;;16.90;12.93;;;8.40;99.90;;;;;;933885;149;27912;-81
2023/12/09 02:12:53;;;;;;;17.23;13.07;;;8.40;99.90;;;;;;934543;149;27303;-80
2023/12/09 02:15:19;;;;;;;15.57;12.40;;;8.40;99.90;;;;;;933846;149;27456;-84
2023/12/09 02:18:04;;;;;;;16.80;12.97;;;8.30;99.90;;;;;;931629;149;27363;-84
2023/12/09 02:20:30;;;;;;;17.17;13.63;;;8.30;99.90;;;;;;905503;153;27405;-83
2023/12/09 02:23:06;;;;;;;16.23;13.30;;;8.30;99.90;;;;;;934197;150;27479;-83
2023/12/09 02:25:33;;;;;;;16.70;14.10;;;8.30;99.90;;;;;;936666;150;27377;-82
2023/12/09 02:27:59;;;;;;;17.80;14.23;;;8.30;99.90;;;;;;918022;153;27363;-82
2023/12/09 02:30:26;;;;;;;17.57;14.27;;;8.30;99.90;;;;;;917792;153;27460;-82
2023/12/09 02:32:52;;;;;;;17.30;13.63;;;8.30;99.90;;;;;;917409;154;27410;-82
2023/12/09 02:35:19;;;;;;;19.00;14.10;;;8.30;99.90;;;;;;905293;153;27405;-82
2023/12/09 02:37:46;;;;;;;16.17;12.77;;;8.30;99.90;;;;;;918367;153;27329;-82
2023/12/09 02:40:12;;;;;;;17.93;14.03;;;8.20;99.90;;;;;;934487;150;27440;-82
2023/12/09 02:42:39;;;;;;;17.43;13.57;;;8.20;99.90;;;;;;934369;150;27316;-81
2023/12/09 02:45:08;;;;;;;17.47;13.73;;;8.20;99.90;;;;;;934144;150;27390;-82
2023/12/09 02:47:35;;;;;;;20.90;13.40;;;8.20;99.90;;;;;;950295;147;28924;-82
2023/12/09 02:50:02;;;;;;;14.73;13.10;;;8.10;99.90;;;;;;948607;147;27373;-82
2023/12/09 02:52:28;;;;;;;18.53;13.80;;;8.10;99.90;;;;;;943402;149;27423;-81
2023/12/09 02:54:55;;;;;;;18.53;14.73;;;8.10;99.90;;;;;;948623;147;27328;-82
2023/12/09 02:57:21;;;;;;;17.40;13.40;;;8.10;99.90;;;;;;943173;149;27354;-82
2023/12/09 02:59:48;;;;;;;16.83;13.73;;;8.10;99.90;;;;;;948540;147;27353;-82
2023/12/09 03:02:14;;;;;;;17.03;13.57;;;8.10;99.90;;;;;;943074;149;27298;-83
2023/12/09 03:04:41;;;;;;;17.27;13.37;;;8.00;99.90;;;;;;926327;148;27486;-82
2023/12/09 03:07:08;;;;;;;17.03;14.00;;;8.00;99.90;;;;;;951598;147;27337;-82
2023/12/09 03:09:34;;;;;;;17.43;13.20;;;8.00;99.90;;;;;;950923;147;27444;-82
2023/12/09 03:12:01;;;;;;;18.93;13.43;;;8.00;99.90;;;;;;951550;147;27289;-82
2023/12/09 03:14:28;;;;;;;18.23;14.80;;;8.00;99.90;;;;;;934197;150;27402;-83
2023/12/09 03:16:54;;;;;;;17.97;14.23;;;8.00;99.90;;;;;;935668;149;27336;-79
2023/12/09 03:19:21;;;;;;;16.50;13.53;;;8.00;99.90;;;;;;951559;147;29454;-79
2023/12/09 03:21:47;;;;;;;19.23;14.30;;;8.00;99.90;;;;;;951426;147;27317;-78
2023/12/09 03:24:14;;;;;;;16.50;13.30;;;8.00;99.90;;;;;;949504;147;27320;-79
2023/12/09 03:26:40;;;;;;;20.47;14.67;;;8.00;99.90;;;;;;949078;147;27292;-81
2023/12/09 03:29:07;;;;;;;26.03;15.20;;;8.00;99.90;;;;;;943291;149;27357;-82
2023/12/09 03:31:33;;;;;;;18.07;14.40;;;8.00;99.90;;;;;;942876;149;27380;-82
2023/12/09 03:34:00;;;;;;;19.23;14.57;;;7.90;99.90;;;;;;942945;149;27361;-82
2023/12/09 03:36:27;;;;;;;19.33;14.43;;;7.90;99.90;;;;;;949133;147;27761;-83
2023/12/09 03:38:53;;;;;;;19.43;13.80;;;7.80;99.90;;;;;;948257;147;27367;-83
2023/12/09 03:41:20;;;;;;;17.10;13.33;;;7.70;99.90;;;;;;951192;147;27377;-82
2023/12/09 03:43:46;;;;;;;19.13;14.60;;;7.70;99.90;;;;;;950918;147;27342;-82
2023/12/09 03:46:13;;;;;;;17.27;13.73;;;7.60;99.90;;;;;;935760;150;27806;-82
2023/12/09 03:48:40;;;;;;;18.37;13.67;;;7.50;99.90;;;;;;947214;148;27356;-82
2023/12/09 03:51:06;;;;;;;17.63;13.60;;;7.50;99.90;;;;;;943850;149;27449;-83
2023/12/09 03:53:33;;;;;;;18.83;13.30;;;7.40;99.90;;;;;;950837;148;27287;-82
2023/12/09 03:55:59;;;;;;;17.57;13.90;;;7.40;99.90;;;;;;964107;146;27311;-82
2023/12/09 03:58:26;;;;;;;16.83;13.57;;;7.40;99.90;;;;;;946841;148;27451;-82
2023/12/09 04:00:53;;;;;;;18.17;13.23;;;7.30;99.90;;;;;;964880;145;27267;-83
2023/12/09 04:03:19;;;;;;;16.33;12.03;;;7.20;99.90;;;;;;944075;149;27374;-82
2023/12/09 04:05:46;;;;;;;15.20;12.13;;;7.20;99.90;;;;;;962876;148;27264;-82
2023/12/09 04:08:12;;;;;;;15.37;12.07;;;7.10;99.90;;;;;;946637;149;27450;-82
2023/12/09 04:10:39;;;;;;;14.90;11.07;;;7.10;99.90;;;;;;947279;149;27933;-82
2023/12/09 04:13:06;;;;;;;14.07;10.97;;;7.10;99.90;;;;;;947633;148;27336;-82
2023/12/09 04:15:32;;;;;;;13.60;10.80;;;7.10;99.90;;;;;;940163;148;27326;-82
2023/12/09 04:17:59;;;;;;;13.63;10.80;;;7.00;99.90;;;;;;964626;146;27388;-82
2023/12/09 04:20:25;;;;;;;15.80;11.63;;;7.10;99.90;;;;;;944081;149;27449;-83
2023/12/09 04:22:52;;;;;;;13.97;11.60;;;7.10;99.90;;;;;;964552;146;27384;-82
2023/12/09 04:25:19;;;;;;;15.57;11.70;;;7.10;99.90;;;;;;946765;149;27368;-82
2023/12/09 04:27:45;;;;;;;13.13;10.80;;;7.10;99.90;;;;;;948370;148;27328;-81
2023/12/09 04:30:12;;;;;;;13.43;10.47;;;7.20;99.90;;;;;;963866;146;27342;-81
2023/12/09 04:32:38;;;;;;;16.47;12.67;;;7.20;99.90;;;;;;964564;146;27422;-81
2023/12/09 04:35:05;;;;;;;14.67;11.27;;;7.20;99.90;;;;;;963987;146;27660;-81
2023/12/09 04:37:32;;;;;;;13.50;11.30;;;7.30;99.90;;;;;;947961;148;27332;-81
2023/12/09 04:39:58;;;;;;;13.77;11.33;;;7.30;99.90;;;;;;946950;149;27317;-81
2023/12/09 04:42:25;;;;;;;15.37;11.47;;;7.30;99.90;;;;;;947286;149;27355;-81
2023/12/09 04:44:51;;;;;;;15.67;11.87;;;7.40;99.90;;;;;;947532;149;27474;-81
2023/12/09 04:47:18;;;;;;;14.90;11.60;;;7.40;99.90;;;;;;964532;146;27308;-80
2023/12/09 04:49:44;;;;;;;14.97;12.00;;;7.40;99.90;;;;;;964077;146;27339;-81
2023/12/09 04:52:11;;;;;;;14.97;11.17;;;7.40;99.90;;;;;;963879;146;27346;-81
2023/12/09 04:54:38;;;;;;;13.43;11.00;;;7.50;99.90;;;;;;964031;146;27356;-80
2023/12/09 04:57:04;;;;;;;14.53;11.77;;;7.50;99.90;;;;;;947084;149;27386;-81
2023/12/09 04:59:31;;;;;;;13.30;11.80;;;7.50;99.90;;;;;;947755;149;27348;-81
2023/12/09 05:01:57;;;;;;;15.67;12.30;;;7.50;99.90;;;;;;947229;149;27381;-81
2023/12/09 05:04:24;;;;;;;15.70;11.97;;;7.50;99.90;;;;;;943271;149;27315;-80
2023/12/09 05:06:51;;;;;;;13.97;11.80;;;7.60;99.90;;;;;;964905;146;27404;-81
2023/12/09 05:09:17;;;;;;;15.03;12.50;;;7.60;99.90;;;;;;942894;148;27434;-81
2023/12/09 05:11:44;;;;;;;14.70;11.07;;;7.60;99.90;;;;;;964154;146;27295;-81
2023/12/09 05:14:10;;;;;;;15.23;11.40;;;7.60;99.90;;;;;;964793;145;27674;-81
2023/12/09 05:16:37;;;;;;;15.63;12.67;;;7.60;99.90;;;;;;947325;149;27317;-81
2023/12/09 05:19:04;;;;;;;14.07;11.23;;;7.60;99.90;;;;;;953503;148;27449;-80
2023/12/09 05:21:30;;;;;;;15.87;12.33;;;7.70;99.90;;;;;;954600;147;27764;-81
2023/12/09 05:23:57;;;;;;;14.67;11.23;;;7.70;99.90;;;;;;947773;148;27306;-81
2023/12/09 05:26:23;;;;;;;13.80;11.53;;;7.70;99.90;;;;;;945875;149;27413;-81
2023/12/09 05:28:50;;;;;;;14.93;11.40;;;7.80;99.90;;;;;;950931;148;27405;-81
2023/12/09 05:31:16;;;;;;;15.20;12.07;;;7.80;99.90;;;;;;952344;148;27450;-80
2023/12/09 05:33:43;;;;;;;15.43;11.37;;;7.80;99.90;;;;;;964239;146;27313;-81
2023/12/09 05:36:10;;;;;;;15.43;11.50;;;7.90;99.90;;;;;;947506;149;27336;-81
2023/12/09 05:38:37;;;;;;;15.50;11.27;;;7.90;99.90;;;;;;964582;146;27299;-81
2023/12/09 05:41:03;;;;;;;13.50;11.30;;;7.90;99.90;;;;;;964383;146;27283;-81
2023/12/09 05:43:29;;;;;;;16.73;12.37;;;8.00;99.90;;;;;;964633;146;27337;-80
2023/12/09 05:45:56;;;;;;;13.63;11.50;;;8.00;99.90;;;;;;948040;148;27435;-81
2023/12/09 05:48:23;;;;;;;12.90;10.63;;;8.00;99.90;;;;;;964244;145;27428;-85
2023/12/09 05:50:49;;;;;;;13.53;10.50;;;8.00;99.90;;;;;;954684;148;27408;-86
2023/12/09 05:53:16;;;;;;;12.67;10.23;;;8.10;99.90;;;;;;955355;147;27359;-86
2023/12/09 05:55:42;;;;;;;12.70;10.30;;;8.10;99.90;;;;;;952145;148;27359;-86
2023/12/09 05:58:09;;;;;;;13.17;10.77;;;8.10;99.90;;;;;;942027;149;27419;-85
2023/12/09 06:00:36;;;;;;;13.80;10.57;;;8.10;99.90;;;;;;964450;146;27880;-84
2023/12/09 06:03:02;;;;;;;15.70;10.67;;;8.10;99.90;;;;;;964156;146;27283;-83
2023/12/09 06:05:29;;;;;;;16.30;10.93;;;8.10;99.90;;;;;;946756;149;27379;-84
2023/12/09 06:07:55;;;;;;;13.93;10.47;;;8.10;99.90;;;;;;947899;148;27400;-83
2023/12/09 06:10:22;;;;;;;14.30;11.07;;;8.10;99.90;;;;;;964322;146;27271;-85
2023/12/09 06:12:48;;;;;;;13.00;10.67;;;8.20;99.90;;;;;;951547;148;27250;-84
2023/12/09 06:15:15;;;;;;;13.07;10.10;;;8.20;99.90;;;;;;946018;148;27455;-83
2023/12/09 06:17:42;;;;;;;14.27;10.37;;;8.20;99.90;;;;;;942717;149;27998;-86
2023/12/09 06:20:08;;;;;;;12.43;10.00;;;8.20;99.90;;;;;;964074;146;27373;-85
2023/12/09 06:22:35;;;;;;;13.63;10.50;;;8.20;99.90;;;;;;946647;149;27406;-84
2023/12/09 06:25:02;;;;;;;11.30;9.87;;;8.20;99.90;;;;;;942164;149;27437;-82
2023/12/09 06:27:28;;;;;;;12.63;10.13;;;8.20;99.90;;;;;;947301;149;27352;-87
2023/12/09 06:29:55;;;;;;;10.90;9.23;;;8.10;99.90;;;;;;946137;149;27325;-86
2023/12/09 06:32:21;;;;;;;10.50;9.40;;;8.10;99.90;;;;;;964152;146;27380;-85
2023/12/09 06:34:48;;;;;;;13.20;9.23;;;8.10;99.90;;;;;;945504;149;27333;-84
2023/12/09 06:37:14;;;;;;;11.63;9.70;;;8.10;99.90;;;;;;963808;146;27330;-86
2023/12/09 06:39:41;;;;;;;10.43;8.90;;;8.10;99.90;;;;;;963575;148;28448;-84
2023/12/09 06:42:08;;;;;;;11.70;9.43;;;8.10;99.90;;;;;;963922;146;27360;-85
2023/12/09 06:44:34;;;;;;;12.17;9.60;;;8.10;99.90;;;;;;964464;146;27597;-85
2023/12/09 06:47:01;;;;;;;11.90;9.63;;;8.10;99.90;;;;;;953244;148;27333;-83
2023/12/09 06:49:27;;;;;;;13.03;9.10;;;8.10;99.90;;;;;;935853;149;27494;-79
2023/12/09 06:51:54;;;;;;;11.30;9.23;;;8.10;99.90;;;;;;950993;147;27340;-78
2023/12/09 06:54:20;;;;;;;10.13;8.53;;;8.10;99.90;;;;;;928201;151;27341;-79
2023/12/09 06:56:47;;;;;;;10.03;8.53;;;8.10;99.90;;;;;;949395;148;28592;-79
2023/12/09 06:59:14;;;;;;;11.10;8.93;;;8.10;99.90;;;;;;949894;148;27354;-79
2023/12/09 07:01:43;;;;;;;12.83;8.87;;;8.10;99.90;;;;;;949327;148;27468;-80
2023/12/09 07:04:09;;;;;;;12.37;8.33;;;8.10;99.90;;;;;;949128;148;27316;-79
2023/12/09 07:06:33;;;;;;;9.90;8.43;;;8.10;99.90;;;;;;949433;148;27364;-79
2023/12/09 07:09:00;;;;;;;9.10;7.80;;;8.10;99.90;;;;;;949705;148;27469;-79
2023/12/09 07:11:27;;;;;;;10.33;8.47;;;8.10;99.90;;;;;;949583;148;27297;-78
2023/12/09 07:13:53;;;;;;;9.93;8.53;;;8.10;99.90;;;;;;949758;148;27275;-79
2023/12/09 07:16:20;;;;;;;11.37;9.30;;;8.10;99.90;;;;;;949995;148;27363;-80
2023/12/09 07:18:46;;;;;;;10.03;7.77;;;8.10;99.90;;;;;;949576;148;27508;-80
2023/12/09 07:21:13;;;;;;;9.17;8.10;;;8.10;99.90;;;;;;949628;148;27401;-79
2023/12/09 07:23:40;;;;;;;8.97;7.63;;;8.10;99.90;;;;;;949185;148;27452;-79
2023/12/09 07:26:06;;;;;;;10.73;7.87;;;8.20;99.90;;;;;;949613;148;27877;-80
2023/12/09 07:28:33;;;;;;;9.57;7.87;;;8.20;99.90;;;;;;949411;148;27449;-81
2023/12/09 07:30:59;;;;;;;10.90;7.90;;;8.20;99.90;;;;;;949213;148;29635;-80
2023/12/09 07:33:26;;;;;;;8.00;7.13;;;8.20;99.90;;;;;;949345;148;27336;-81
2023/12/09 07:35:52;;;;;;;10.73;7.43;;;8.30;99.90;;;;;;949670;148;27329;-79
2023/12/09 07:38:19;;;;;;;8.10;7.13;;;8.30;99.90;;;;;;949415;148;27391;-79
2023/12/09 07:40:46;;;;;;;8.27;6.17;;;8.30;99.90;;;;;;949586;148;27463;-78
2023/12/09 07:43:12;;;;;;;8.47;6.47;;;8.30;99.90;;;;;;949458;148;27872;-82
2023/12/09 07:45:39;;;;;;;9.50;6.80;;;8.40;99.90;;;;;;948365;148;27370;-82
2023/12/09 07:48:05;;;;;;;8.10;6.57;;;8.40;99.90;;;;;;949553;148;27425;-81
2023/12/09 07:50:32;;;;;;;6.97;6.27;;;8.40;99.90;;;;;;949799;148;27469;-82
2023/12/09 07:52:59;;;;;;;9.10;6.97;;;8.40;99.90;;;;;;949226;148;27329;-82
2023/12/09 07:55:25;;;;;;;9.47;6.73;;;8.50;99.90;;;;;;949227;148;27464;-82
2023/12/09 07:57:52;;;;;;;9.10;6.93;;;8.50;99.90;;;;;;948987;148;27325;-84
2023/12/09 08:00:18;;;;;;;9.10;7.43;;;8.50;99.90;;;;;;950259;148;27360;-84
2023/12/09 08:02:45;;;;;;;9.63;7.03;;;8.50;99.90;;;;;;949387;148;27371;-83
2023/12/09 08:05:11;;;;;;;7.30;6.17;;;8.60;99.90;;;;;;950320;148;27305;-83
2023/12/09 08:07:38;;;;;;;7.67;6.63;;;8.60;99.90;;;;;;949647;148;27703;-84
2023/12/09 08:10:06;;;;;;;8.77;6.60;;;8.60;99.90;;;;;;950063;148;27434;-82
2023/12/09 08:12:31;;;;;;;8.00;6.17;;;8.70;99.90;;;;;;949207;148;27371;-83
2023/12/09 08:14:58;;;;;;;8.10;6.53;;;8.70;99.90;;;;;;949234;148;28296;-91
2023/12/09 08:17:24;;;;;;;9.33;6.73;;;8.70;99.90;;;;;;949580;148;27323;-82
2023/12/09 08:19:51;;;;;;;8.10;6.73;;;8.80;99.90;;;;;;949681;148;27415;-82
2023/12/09 08:22:18;;;;;;;7.73;6.33;;;8.80;99.90;;;;;;949763;148;27380;-82
2023/12/09 08:24:44;;;;;;;9.03;6.70;;;8.80;99.90;;;;;;949321;148;27339;-80
2023/12/09 08:27:11;;;;;;;8.80;6.47;;;8.90;99.90;;;;;;948755;148;27352;-80
2023/12/09 08:29:37;;;;;;;8.07;6.40;;;8.90;99.90;;;;;;948720;148;27261;-79
2023/12/09 08:32:04;;;;;;;7.10;6.30;;;8.90;99.90;;;;;;949174;148;27468;-80
2023/12/09 08:34:30;;;;;;;8.23;6.27;;;8.90;99.90;;;;;;948989;148;27296;-79
2023/12/09 08:36:57;;;;;;;7.87;6.07;;;9.00;99.90;;;;;;948643;148;27356;-79
2023/12/09 08:39:24;;;;;;;8.37;6.57;;;9.00;99.90;;;;;;948824;148;27483;-80
2023/12/09 08:41:50;;;;;;;9.50;6.83;;;9.00;99.90;;;;;;948857;148;27464;-80
2023/12/09 08:44:17;;;;;;;7.70;6.67;;;9.10;99.90;;;;;;948441;148;27402;-82
2023/12/09 08:46:43;;;;;;;8.07;6.70;;;9.10;99.90;;;;;;948831;148;27414;-83
2023/12/09 08:49:10;;;;;;;9.30;6.27;;;9.10;99.90;;;;;;949208;148;27328;-83
2023/12/09 08:51:43;;;;;;;11.53;6.70;;;9.10;99.90;;;;;;947532;150;27491;-82
2023/12/09 08:54:09;;;;;;;9.00;6.90;;;9.20;99.90;;;;;;946264;151;27321;-83
2023/12/09 08:56:36;;;;;;;9.43;6.93;;;9.20;99.90;;;;;;946995;151;27321;-82
2023/12/09 08:59:07;;;;;;;8.77;6.33;;;9.20;99.90;;;;;;946914;151;27696;-80
2023/12/09 09:01:29;;;;;;;9.17;6.83;;;9.20;99.90;;;;;;946829;151;27356;-80
2023/12/09 09:03:56;;;;;;;9.63;6.20;;;9.30;99.90;;;;;;946895;151;27432;-80
2023/12/09 09:06:22;;;;;;;8.70;6.70;;;9.30;99.90;;;;;;946313;151;27455;-80
2023/12/09 09:08:49;;;;;;;8.70;6.37;;;9.30;99.90;;;;;;947154;151;27402;-82
2023/12/09 09:11:15;;;;;;;7.80;6.60;;;9.30;99.90;;;;;;947427;151;27768;-82
2023/12/09 09:13:42;;;;;;;8.80;6.67;;;9.30;99.90;;;;;;947470;151;27368;-82
2023/12/09 09:16:10;;;;;;;11.03;7.00;;;9.40;99.90;;;;;;947068;151;28188;-82
2023/12/09 09:18:36;;;;;;;8.50;6.47;;;9.40;99.90;;;;;;947299;151;27380;-80
2023/12/09 09:21:03;;;;;;;10.00;6.47;;;9.40;99.90;;;;;;947291;151;27344;-81
2023/12/09 09:23:29;;;;;;;9.07;6.20;;;9.40;99.90;;;;;;945763;151;27348;-80
2023/12/09 09:25:56;;;;;;;7.10;5.87;;;9.40;99.90;;;;;;955243;148;28691;-80
2023/12/09 09:28:22;;;;;;;6.83;5.67;;;9.50;99.90;;;;;;942147;150;27383;-80
2023/12/09 09:30:49;;;;;;;7.13;5.70;;;9.50;99.90;;;;;;931457;152;27294;-80
2023/12/09 09:33:17;;;;;;;8.87;6.57;;;9.60;99.90;;;;;;943681;152;27369;-80
2023/12/09 09:35:43;;;;;;;8.47;6.23;;;9.60;99.90;;;;;;939208;151;27326;-80
2023/12/09 09:38:09;;;;;;;7.10;6.07;;;9.70;99.90;;;;;;955314;149;27328;-80
2023/12/09 09:40:35;;;;;;;8.27;6.60;;;9.70;99.90;;;;;;955317;149;27343;-80
2023/12/09 09:43:02;;;;;;;7.83;6.23;;;9.80;99.90;;;;;;937964;151;27427;-80
2023/12/09 09:45:29;;;;;;;7.87;6.40;;;9.80;99.90;;;;;;954335;148;27295;-80
2023/12/09 09:47:55;;;;;;;9.07;6.40;;;9.90;99.90;;;;;;939136;151;27325;-83
2023/12/09 09:50:22;;;;;;;8.37;6.37;;;10.00;99.90;;;;;;956888;148;27386;-83
2023/12/09 09:52:48;;;;;;;9.03;6.03;;;10.10;99.90;;;;;;963196;146;27339;-83
2023/12/09 09:57:54;;;;;;;10.00;7.27;;;10.20;99.90;;;;;;969831;145;38501;-83
2023/12/09 10:00:21;;;;;;;6.07;5.47;;;10.40;99.90;;;;;;952589;146;27358;-82
2023/12/09 10:02:47;;;;;;;6.77;6.07;;;10.50;99.90;;;;;;950063;148;27868;-82
2023/12/09 10:05:15;;;;;;;6.63;5.97;;;10.50;99.90;;;;;;951301;149;27343;-82
2023/12/09 10:07:40;;;;;;;8.80;6.17;;;10.70;99.90;;;;;;951821;148;27280;-82
2023/12/09 10:12:36;;;;;;;7.43;6.07;;;10.80;99.90;;;;;;990432;142;35938;-80
2023/12/09 10:15:02;;;;;;;7.10;5.87;;;10.90;99.90;;;;;;970682;145;27425;-82
2023/12/09 10:17:29;;;;;;;9.23;5.90;;;11.00;99.90;;;;;;970623;145;27263;-82
2023/12/09 10:19:56;;;;;;;7.73;6.03;;;11.00;99.90;;;;;;973329;145;27262;-84
2023/12/09 10:22:22;;;;;;;6.03;5.43;;;11.10;99.90;;;;;;971546;145;27295;-83
2023/12/09 10:24:51;;;;;;;6.97;6.00;;;11.20;99.90;;;;;;964498;145;27460;-83
2023/12/09 10:27:15;;;;;;;8.90;6.27;;;11.20;99.90;;;;;;951975;147;27305;-83
2023/12/09 10:29:42;;;;;;;8.45;6.17;;;11.30;99.90;;;;;;954287;147;27379;-82
2023/12/09 10:32:09;;;;;;;7.60;4.90;;;11.40;99.90;;;;;;951598;147;28500;-81
2023/12/09 10:34:35;;;;;;;7.67;5.35;;;11.50;99.90;;;;;;952660;148;27327;-82
2023/12/09 10:37:02;;;;;;;6.40;4.63;;;11.60;99.90;;;;;;951639;148;27280;-81
2023/12/09 10:39:29;;;;;;;6.53;4.95;;;11.60;99.90;;;;;;915170;154;27334;-82
2023/12/09 10:41:55;;;;;;;7.17;4.80;;;11.70;99.90;;;;;;930233;151;27412;-81
2023/12/09 10:44:22;;;;;;;5.17;4.60;;;11.80;99.90;;;;;;918657;153;27734;-82
2023/12/09 10:46:48;;;;;;;8.18;5.28;;;11.90;99.90;;;;;;936175;151;27430;-81
2023/12/09 10:49:15;;;;;;;8.73;4.83;;;12.00;99.90;;;;;;936169;151;27315;-82
2023/12/09 10:51:41;;;;;;;5.77;4.70;;;12.00;99.90;;;;;;935769;150;27396;-82
2023/12/09 10:54:08;;;;;;;6.50;5.00;;;12.10;99.90;;;;;;918787;151;27353;-82
2023/12/09 10:56:34;;;;;;;7.60;4.95;;;12.10;99.90;;;;;;928265;152;27339;-82
2023/12/09 10:59:01;;;;;;;5.87;4.60;;;12.10;99.90;;;;;;927768;152;27358;-82
2023/12/09 11:01:28;;;;;;;7.53;5.75;;;12.10;99.90;;;;;;926345;152;27330;-81
2023/12/09 11:03:54;;;;;;;7.87;6.67;;;12.10;99.90;;;;;;927323;151;27390;-82
2023/12/09 11:06:21;;;;;;;12.23;8.73;;;12.10;99.90;;;;;;928045;152;27480;-81
2023/12/09 11:08:48;;;;;;;8.13;6.17;;;12.10;99.90;;;;;;929798;152;27320;-82
2023/12/09 11:11:15;;;;;;;7.92;6.05;;;12.10;99.90;;;;;;925725;151;27398;-81
2023/12/09 11:13:44;;;;;;;24.23;18.30;;;12.10;99.90;;;;;;918420;153;27311;-82
2023/12/09 11:16:16;;;;;;;14.90;9.50;;;12.10;99.90;;;;;;918308;152;27382;-81
2023/12/09 11:18:51;;;;;;;17.27;13.17;;;12.10;99.90;;;;;;917696;153;27354;-82
2023/12/09 11:21:18;;;;;;;10.37;8.63;;;12.10;99.90;;;;;;922349;152;27416;-81
2023/12/09 11:23:51;;;;;;;15.17;11.53;;;12.10;99.90;;;;;;931127;151;27412;-81
2023/12/09 11:26:18;;;;;;;6.87;6.00;;;12.10;99.90;;;;;;931709;152;27360;-81
2023/12/09 11:29:03;;;;;;;11.20;7.65;;;12.10;99.90;;;;;;920302;152;27313;-81
2023/12/09 11:31:34;;;;;;;8.43;6.10;;;12.10;99.90;;;;;;919442;151;27344;-81
2023/12/09 11:34:01;;;;;;;5.85;4.70;;;12.10;99.90;;;;;;950607;147;28058;-81
2023/12/09 11:36:30;;;;;;;7.97;5.55;;;12.20;99.90;;;;;;960637;146;27341;-82
2023/12/09 11:38:57;;;;;;;7.30;4.58;;;12.30;99.90;;;;;;953673;147;27307;-82
2023/12/09 11:41:23;;;;;;;5.43;4.40;;;12.30;99.90;;;;;;950317;147;27716;-81
2023/12/09 11:43:50;;;;;;;7.97;5.20;;;12.40;99.90;;;;;;906261;154;27452;-81
2023/12/09 11:46:17;;;;;;;6.28;4.50;;;12.50;99.90;;;;;;894677;153;27366;-81
2023/12/09 11:48:43;;;;;;;19.23;10.23;;;12.60;99.90;;;;;;932433;152;27298;-81
2023/12/09 11:51:10;;;;;;;16.10;10.45;;;12.60;99.90;;;;;;931486;151;27360;-81
2023/12/09 11:53:36;;;;;;;9.08;6.87;;;12.70;99.90;;;;;;919907;153;27393;-82
2023/12/09 11:56:03;;;;;;;7.53;4.70;;;12.80;99.90;;;;;;920676;152;27385;-81
2023/12/09 11:58:29;;;;;;;6.00;4.87;;;12.90;99.90;;;;;;921111;152;27281;-81
2023/12/09 12:00:56;;;;;;;8.90;5.08;;;13.00;99.90;;;;;;920386;152;27933;-81
2023/12/09 12:03:23;;;;;;;7.28;4.83;;;13.10;99.90;;;;;;950553;149;27303;-81
2023/12/09 12:05:49;;;;;;;8.05;5.55;;;13.20;99.90;;;;;;907639;154;27500;-81
2023/12/09 12:08:16;;;;;;;9.25;5.47;;;13.20;99.90;;;;;;914028;154;27353;-81
2023/12/09 12:10:42;;;;;;;8.43;4.30;;;13.30;99.90;;;;;;931271;152;27424;-81
2023/12/09 12:13:09;;;;;;;9.55;4.60;;;13.40;99.90;;;;;;933780;151;27334;-81
2023/12/09 12:15:36;;;;;;;5.25;3.95;;;13.40;99.90;;;;;;932807;152;27282;-81
2023/12/09 12:18:02;;;;;;;6.30;3.35;;;13.40;99.90;;;;;;931144;152;27470;-81
2023/12/09 12:20:29;;;;;;;5.15;3.65;;;13.50;99.90;;;;;;930976;152;27377;-81
2023/12/09 12:22:56;;;;;;;4.40;3.50;;;13.50;99.90;;;;;;921841;153;27381;-81
2023/12/09 12:25:22;;;;;;;5.30;3.27;;;13.50;99.90;;;;;;920577;152;27390;-81
2023/12/09 12:27:48;;;;;;;3.47;2.90;;;13.60;99.90;;;;;;951009;148;27482;-81
2023/12/09 12:30:15;;;;;;;4.67;2.92;;;13.60;99.90;;;;;;951925;149;27422;-81
2023/12/09 12:32:42;;;;;;;2.50;2.25;;;13.70;99.90;;;;;;906852;155;27863;-81
2023/12/09 12:35:08;;;;;;;5.67;3.67;;;13.70;99.90;;;;;;929888;151;27365;-81
2023/12/09 12:37:35;;;;;;;3.15;2.12;;;13.80;99.90;;;;;;915462;155;27324;-81
2023/12/09 12:40:02;;;;;;;3.12;2.20;;;13.80;99.90;;;;;;920367;153;27386;-82
2023/12/09 12:42:28;;;;;;;6.53;2.02;;;13.80;99.90;;;;;;931165;151;27440;-82
2023/12/09 12:44:55;;;;;;;3.08;2.00;;;13.80;99.90;;;;;;914510;155;27335;-82